Time;durP1;ratioP1;P1;durP2;ratioP2;P2;SDS_P1;SDS_P2;PMS_P1;PMS_P2;Temp;Humidity;BMP_temperature;BMP_pressure;BME280_temperature;BME280_humidity;BME280_pressure;Samples;Min_cycle;Max_cycle;Signal;HPM_P1;HPM_P2
2022/01/08 00:00:43;;;;;;;;;;;-3.10;82.90;;;;;;6037886;23;19994;-77
2022/01/08 00:03:10;;;;;;;;;;;-3.10;83.20;;;;;;6037496;23;20400;-77
2022/01/08 00:05:37;;;;;;;;;;;-3.10;82.80;;;;;;6038110;23;20408;-77
2022/01/08 00:08:05;;;;;;;;;;;-3.10;83.40;;;;;;6036396;23;19977;-76
2022/01/08 00:10:32;;;;;;;;;;;-3.10;83.20;;;;;;6036308;23;19921;-77
2022/01/08 00:13:05;;;;;;;;;;;-3.10;83.10;;;;;;6037990;23;19922;-77
2022/01/08 00:15:32;;;;;;;;;;;-3.10;83.20;;;;;;6037515;23;19932;-76
2022/01/08 00:17:59;;;;;;;;;;;-3.10;84.20;;;;;;6037415;23;20300;-76
2022/01/08 00:20:27;;;;;;;;;;;-3.10;83.50;;;;;;6038764;23;19926;-78
2022/01/08 00:22:56;;;;;;;;;;;-3.10;85.30;;;;;;6039100;23;19934;-79
2022/01/08 00:25:23;;;;;;;;;;;-3.20;88.00;;;;;;6038434;23;19922;-76
2022/01/08 00:27:49;;;;;;;;;;;-3.10;87.90;;;;;;6039440;23;19973;-79
2022/01/08 00:30:16;;;;;;;;;;;-3.10;86.50;;;;;;6036493;23;19974;-76
2022/01/08 00:32:43;;;;;;;;;;;-3.10;85.20;;;;;;6036940;23;19922;-76
2022/01/08 00:35:11;;;;;;;;;;;-3.10;87.10;;;;;;6036477;23;19968;-79
2022/01/08 00:37:38;;;;;;;;;;;-3.00;88.60;;;;;;6039263;23;19922;-76
2022/01/08 00:40:08;;;;;;;;;;;-3.00;87.70;;;;;;6037917;23;19926;-76
2022/01/08 00:42:36;;;;;;;;;;;-2.90;87.30;;;;;;6038849;23;20345;-77
2022/01/08 00:45:03;;;;;;;;;;;-2.90;86.10;;;;;;6039406;23;19921;-78
2022/01/08 00:47:30;;;;;;;;;;;-2.90;85.10;;;;;;6036850;23;19932;-79
2022/01/08 00:49:57;;;;;;;;;;;-3.10;85.00;;;;;;6037760;23;19922;-77
2022/01/08 00:52:24;;;;;;;;;;;-3.10;85.10;;;;;;6036780;23;20339;-76
2022/01/08 00:54:51;;;;;;;;;;;-3.10;85.10;;;;;;6039201;23;20340;-76
2022/01/08 00:57:18;;;;;;;;;;;-3.10;84.90;;;;;;6038240;23;19951;-76
2022/01/08 00:59:45;;;;;;;;;;;-3.10;85.00;;;;;;6037232;23;19926;-76
2022/01/08 01:02:12;;;;;;;;;;;-3.20;85.90;;;;;;6038356;23;20347;-78
2022/01/08 01:04:39;;;;;;;;;;;-3.20;86.30;;;;;;6038481;23;20263;-79
2022/01/08 01:07:06;;;;;;;;;;;-3.20;86.00;;;;;;6038120;23;19937;-76
2022/01/08 01:09:33;;;;;;;;;;;-3.20;85.30;;;;;;6037734;23;19930;-76
2022/01/08 01:11:59;;;;;;;;;;;-3.20;85.50;;;;;;6037699;23;20363;-77
2022/01/08 01:14:26;;;;;;;;;;;-3.20;85.30;;;;;;6036591;23;19951;-77
2022/01/08 01:16:53;;;;;;;;;;;-3.10;86.70;;;;;;6014217;23;19950;-79
2022/01/08 01:19:21;;;;;;;;;;;-3.10;87.50;;;;;;6036380;23;19985;-77
2022/01/08 01:21:49;;;;;;;;;;;-3.10;87.90;;;;;;6037198;23;19974;-79
2022/01/08 01:24:20;;;;;;;;;;;-3.00;87.20;;;;;;6036621;23;19930;-76
2022/01/08 01:27:28;;;;;;;;;;;-3.00;86.80;;;;;;6037218;23;19929;-77
2022/01/08 01:30:00;;;;;;;;;;;-3.00;86.50;;;;;;6037989;23;19977;-76
2022/01/08 01:48:59;;;;;;;;;;;-3.30;87.60;;;;;;6040564;23;19922;-79
2022/01/08 01:51:25;;;;;;;;;;;-3.30;87.00;;;;;;6042909;23;19959;-77
2022/01/08 01:53:52;;;;;;;;;;;-3.30;86.40;;;;;;6041810;23;19921;-76
2022/01/08 01:56:20;;;;;;;;;;;-3.30;86.10;;;;;;6044449;23;19925;-80
2022/01/08 01:58:47;;;;;;;;;;;-3.30;86.10;;;;;;6068828;23;19922;-76
2022/01/08 02:01:14;;;;;;;;;;;-3.30;86.80;;;;;;6043337;23;19928;-79
2022/01/08 02:03:41;;;;;;;;;;;-3.40;87.50;;;;;;6044069;23;19930;-77
2022/01/08 02:06:08;;;;;;;;;;;-3.40;88.80;;;;;;6042954;23;19997;-76
2022/01/08 02:08:35;;;;;;;;;;;-3.40;88.60;;;;;;6043753;23;19925;-77
2022/01/08 02:11:02;;;;;;;;;;;-3.50;88.40;;;;;;6043159;23;19921;-77
2022/01/08 02:13:29;;;;;;;;;;;-3.50;87.90;;;;;;6044026;23;20413;-77
2022/01/08 02:15:58;;;;;;;;;;;-3.50;87.20;;;;;;6043685;23;20347;-79
2022/01/08 02:18:27;;;;;;;;;;;-3.40;86.90;;;;;;6068686;23;19922;-78
2022/01/08 02:20:55;;;;;;;;;;;-3.40;86.80;;;;;;6069064;23;19921;-79
2022/01/08 02:23:26;;;;;;;;;;;-3.40;87.00;;;;;;6043280;23;19922;-78
2022/01/08 02:26:06;;;;;;;;;;;-3.40;86.90;;;;;;6068785;23;19921;-79
2022/01/08 02:28:34;;;;;;;;;;;-3.40;89.10;;;;;;6044321;23;20002;-76
2022/01/08 02:31:01;;;;;;;;;;;-3.30;88.60;;;;;;6043610;23;19929;-76
2022/01/08 02:33:28;;;;;;;;;;;-3.40;88.20;;;;;;6043077;23;19973;-78
2022/01/08 02:35:55;;;;;;;;;;;-3.30;87.90;;;;;;6067167;23;20350;-78
2022/01/08 02:38:23;;;;;;;;;;;-3.30;87.60;;;;;;6043736;23;19926;-75
2022/01/08 02:40:55;;;;;;;;;;;-3.30;87.60;;;;;;6043963;23;19925;-77
2022/01/08 02:43:23;;;;;;;;;;;-3.30;87.80;;;;;;6043242;23;19925;-79
2022/01/08 02:45:51;;;;;;;;;;;-3.40;89.60;;;;;;6068902;23;20332;-76
2022/01/08 02:48:17;;;;;;;;;;;-3.40;90.10;;;;;;6067774;23;20335;-77
2022/01/08 02:50:45;;;;;;;;;;;-3.40;90.00;;;;;;6068548;23;20343;-77
2022/01/08 02:53:12;;;;;;;;;;;-3.40;88.90;;;;;;6043066;23;19953;-79
2022/01/08 02:55:39;;;;;;;;;;;-3.40;88.40;;;;;;6044158;23;19925;-76
2022/01/08 02:58:06;;;;;;;;;;;-3.40;89.10;;;;;;6067524;23;19926;-77
2022/01/08 03:00:32;;;;;;;;;;;-3.40;88.30;;;;;;6043400;23;19928;-78
2022/01/08 03:02:59;;;;;;;;;;;-3.50;88.90;;;;;;6042664;23;20347;-76
2022/01/08 03:05:27;;;;;;;;;;;-3.50;89.60;;;;;;6069033;23;19921;-77
2022/01/08 03:07:54;;;;;;;;;;;-3.50;90.40;;;;;;6044763;23;19921;-79
2022/01/08 03:10:21;;;;;;;;;;;-3.50;90.50;;;;;;6043071;23;19974;-77
2022/01/08 03:12:49;;;;;;;;;;;-3.50;90.30;;;;;;6044098;23;19985;-79
2022/01/08 03:15:19;;;;;;;;;;;-3.50;90.20;;;;;;6042797;23;19930;-77
2022/01/08 03:17:47;;;;;;;;;;;-3.50;90.60;;;;;;6068974;23;19951;-78
2022/01/08 03:20:14;;;;;;;;;;;-3.50;90.40;;;;;;6067381;23;20309;-76
2022/01/08 03:22:42;;;;;;;;;;;-3.40;90.20;;;;;;6068358;23;19929;-79
2022/01/08 03:25:10;;;;;;;;;;;-3.40;90.30;;;;;;6042153;23;19921;-76
2022/01/08 03:27:37;;;;;;;;;;;-3.40;90.10;;;;;;6068323;23;19977;-76
2022/01/08 03:30:05;;;;;;;;;;;-3.40;89.80;;;;;;6042456;23;20283;-77
2022/01/08 03:32:32;;;;;;;;;;;-3.30;89.90;;;;;;6042784;23;20296;-76
2022/01/08 03:34:59;;;;;;;;;;;-3.30;90.20;;;;;;6043063;23;19922;-75
2022/01/08 03:37:26;;;;;;;;;;;-3.20;90.20;;;;;;6042310;23;19922;-76
2022/01/08 03:39:53;;;;;;;;;;;-3.30;89.90;;;;;;6042948;23;20411;-79
2022/01/08 03:42:19;;;;;;;;;;;-3.30;89.10;;;;;;6067759;23;19922;-78
2022/01/08 03:44:46;;;;;;;;;;;-3.30;89.00;;;;;;6043605;23;19978;-79
2022/01/08 03:49:55;;;;;;;;;;;-3.30;88.60;;;;;;6068284;23;20348;-80
2022/01/08 03:52:22;;;;;;;;;;;-3.30;89.00;;;;;;6067421;23;19934;-77
2022/01/08 03:54:49;;;;;;;;;;;-3.30;88.50;;;;;;6043095;23;19922;-77
2022/01/08 03:57:16;;;;;;;;;;;-3.30;88.10;;;;;;6042199;23;20410;-76
2022/01/08 03:59:43;;;;;;;;;;;-3.30;88.10;;;;;;6068351;23;19925;-76
2022/01/08 04:02:09;;;;;;;;;;;-3.40;87.80;;;;;;6042293;23;19922;-77
2022/01/08 04:04:36;;;;;;;;;;;-3.40;87.90;;;;;;6042979;23;20366;-77
2022/01/08 04:07:04;;;;;;;;;;;-3.40;89.00;;;;;;6042301;23;19926;-76
2022/01/08 04:09:30;;;;;;;;;;;-3.30;89.10;;;;;;6043202;23;19933;-77
2022/01/08 04:11:57;;;;;;;;;;;-3.30;88.60;;;;;;6042456;23;20331;-77
2022/01/08 04:14:30;;;;;;;;;;;-3.30;89.30;;;;;;6067106;23;20321;-75
2022/01/08 04:16:57;;;;;;;;;;;-3.20;90.00;;;;;;6042548;23;20304;-77
2022/01/08 04:19:24;;;;;;;;;;;-3.20;89.40;;;;;;6041899;23;20371;-75
2022/01/08 04:22:07;;;;;;;;;;;-3.20;89.10;;;;;;6042776;23;19946;-79
2022/01/08 04:24:34;;;;;;;;;;;-3.10;89.20;;;;;;6022066;23;19922;-79
2022/01/08 04:27:00;;;;;;;;;;;-3.10;88.80;;;;;;6067329;23;20410;-76
2022/01/08 04:29:27;;;;;;;;;;;-3.10;88.80;;;;;;6067092;23;19922;-79
2022/01/08 04:31:55;;;;;;;;;;;-3.20;88.20;;;;;;6042455;23;19969;-77
2022/01/08 04:34:22;;;;;;;;;;;-3.10;88.50;;;;;;6041964;23;19922;-76
2022/01/08 04:36:49;;;;;;;;;;;-3.20;88.60;;;;;;6042605;23;19922;-77
2022/01/08 04:39:17;;;;;;;;;;;-3.10;88.40;;;;;;6066749;23;19925;-75
2022/01/08 04:41:44;;;;;;;;;;;-3.10;88.40;;;;;;6068016;23;19922;-79
2022/01/08 04:44:11;;;;;;;;;;;-3.10;88.20;;;;;;6041883;23;20280;-78
2022/01/08 04:46:40;;;;;;;;;;;-3.00;88.30;;;;;;6042466;23;19976;-79
2022/01/08 04:49:08;;;;;;;;;;;-3.00;88.20;;;;;;6067171;23;19921;-80
2022/01/08 04:51:35;;;;;;;;;;;-3.00;87.90;;;;;;6041682;23;19934;-78
2022/01/08 04:54:01;;;;;;;;;;;-3.00;88.00;;;;;;6067102;23;19945;-78
2022/01/08 04:56:28;;;;;;;;;;;-2.90;89.00;;;;;;6041627;23;19925;-79
2022/01/08 04:58:55;;;;;;;;;;;-3.00;89.10;;;;;;6041929;23;19973;-78
2022/01/08 05:01:22;;;;;;;;;;;-3.00;89.00;;;;;;6066461;23;19921;-77
2022/01/08 05:03:49;;;;;;;;;;;-3.00;88.60;;;;;;6042183;23;19970;-76
2022/01/08 05:06:16;;;;;;;;;;;-2.90;88.70;;;;;;6040991;23;19932;-77
2022/01/08 05:08:43;;;;;;;;;;;-3.00;88.40;;;;;;6042772;23;20403;-77
2022/01/08 05:11:10;;;;;;;;;;;-2.90;88.30;;;;;;6041717;23;19926;-78
2022/01/08 05:13:38;;;;;;;;;;;-2.90;88.90;;;;;;6066456;23;19921;-76
2022/01/08 05:16:05;;;;;;;;;;;-3.00;87.80;;;;;;6067045;23;19932;-78
2022/01/08 05:18:33;;;;;;;;;;;-3.00;87.70;;;;;;6041402;23;19934;-78
2022/01/08 05:21:13;;;;;;;;;;;-3.00;88.50;;;;;;6067308;23;19926;-79
2022/01/08 05:23:39;;;;;;;;;;;-3.10;87.50;;;;;;6066438;23;19933;-79
2022/01/08 05:26:06;;;;;;;;;;;-3.10;87.20;;;;;;6067174;23;19981;-79
2022/01/08 05:28:36;;;;;;;;;;;-3.20;87.70;;;;;;6065923;23;20339;-80
2022/01/08 05:31:03;;;;;;;;;;;-3.20;87.40;;;;;;6066963;23;19973;-76
2022/01/08 05:33:30;;;;;;;;;;;-3.20;87.10;;;;;;6041314;23;19926;-79
2022/01/08 05:35:56;;;;;;;;;;;-3.20;88.30;;;;;;6042163;23;19973;-78
2022/01/08 05:38:23;;;;;;;;;;;-3.20;89.90;;;;;;6041281;23;20293;-78
2022/01/08 05:40:50;;;;;;;;;;;-3.20;89.40;;;;;;6067202;23;20340;-76
2022/01/08 05:43:17;;;;;;;;;;;-3.10;90.40;;;;;;6041730;23;20356;-78
2022/01/08 05:45:44;;;;;;;;;;;-3.10;90.00;;;;;;6042635;23;19922;-79
2022/01/08 05:48:12;;;;;;;;;;;-3.20;88.80;;;;;;6042056;23;19922;-76
2022/01/08 05:50:40;;;;;;;;;;;-3.20;88.40;;;;;;6041461;23;19925;-76
2022/01/08 05:53:07;;;;;;;;;;;-3.30;88.00;;;;;;6067226;23;19989;-80
2022/01/08 05:55:34;;;;;;;;;;;-3.50;88.40;;;;;;6041537;23;19933;-79
2022/01/08 05:58:00;;;;;;;;;;;-3.60;90.00;;;;;;6041775;23;19921;-78
2022/01/08 06:00:27;;;;;;;;;;;-3.70;89.90;;;;;;6040398;23;19922;-79
2022/01/08 06:02:54;;;;;;;;;;;-3.70;90.60;;;;;;6066880;23;19921;-78
2022/01/08 06:05:21;;;;;;;;;;;-3.70;90.70;;;;;;6041395;23;19922;-78
2022/01/08 06:07:48;;;;;;;;;;;-3.60;90.60;;;;;;6067431;23;20358;-77
2022/01/08 06:10:15;;;;;;;;;;;-3.50;91.30;;;;;;6066993;23;19926;-78
2022/01/08 06:12:41;;;;;;;;;;;-3.50;91.10;;;;;;6041204;23;20368;-75
2022/01/08 06:15:08;;;;;;;;;;;-3.40;91.20;;;;;;6042155;23;19925;-77
2022/01/08 06:17:35;;;;;;;;;;;-3.40;90.90;;;;;;6066337;23;19926;-77
2022/01/08 06:20:03;;;;;;;;;;;-3.40;90.70;;;;;;6041872;23;20236;-78
2022/01/08 06:22:30;;;;;;;;;;;-3.40;90.70;;;;;;6039595;23;19969;-79
2022/01/08 06:24:57;;;;;;;;;;;-3.40;90.80;;;;;;6042324;23;20347;-76
2022/01/08 06:27:24;;;;;;;;;;;-3.40;90.90;;;;;;6040881;23;19922;-80
2022/01/08 06:29:51;;;;;;;;;;;-3.30;91.00;;;;;;6041260;23;19976;-79
2022/01/08 06:32:19;;;;;;;;;;;-3.30;91.80;;;;;;6042406;23;19925;-78
2022/01/08 06:34:46;;;;;;;;;;;-3.30;91.10;;;;;;6066315;23;19939;-79
2022/01/08 06:37:12;;;;;;;;;;;-3.30;91.00;;;;;;6042807;23;19922;-79
2022/01/08 06:39:39;;;;;;;;;;;-3.30;91.00;;;;;;6041501;23;19922;-78
2022/01/08 06:42:06;;;;;;;;;;;-3.30;90.90;;;;;;6069002;23;19973;-78
2022/01/08 06:44:33;;;;;;;;;;;-3.30;90.70;;;;;;6019543;23;19925;-78
2022/01/08 06:47:00;;;;;;;;;;;-3.30;90.60;;;;;;6069136;23;20072;-78
2022/01/08 06:49:26;;;;;;;;;;;-3.30;90.90;;;;;;6043220;23;19937;-77
2022/01/08 06:51:53;;;;;;;;;;;-3.30;91.00;;;;;;6044370;23;19921;-80
2022/01/08 06:54:20;;;;;;;;;;;-3.30;90.50;;;;;;6043860;23;20366;-79
2022/01/08 06:56:47;;;;;;;;;;;-3.40;90.30;;;;;;6043719;23;19925;-78
2022/01/08 06:59:14;;;;;;;;;;;-3.40;90.30;;;;;;6043497;23;19926;-76
2022/01/08 07:01:42;;;;;;;;;;;-3.50;90.20;;;;;;6042514;23;19921;-77
2022/01/08 07:04:08;;;;;;;;;;;-3.50;90.30;;;;;;6043241;23;20307;-78
2022/01/08 07:06:35;;;;;;;;;;;-3.60;90.30;;;;;;6067372;23;20370;-80
2022/01/08 07:09:02;;;;;;;;;;;-3.60;90.20;;;;;;6043535;23;20403;-80
2022/01/08 07:11:29;;;;;;;;;;;-3.60;90.40;;;;;;6042364;23;19922;-78
2022/01/08 07:13:56;;;;;;;;;;;-3.60;90.40;;;;;;6043310;23;20151;-78
2022/01/08 07:16:23;;;;;;;;;;;-3.60;90.50;;;;;;6042609;23;20336;-78
2022/01/08 07:18:50;;;;;;;;;;;-3.60;90.20;;;;;;6068957;23;19977;-78
2022/01/08 07:21:17;;;;;;;;;;;-3.80;90.00;;;;;;6043917;23;20348;-80
2022/01/08 07:23:48;;;;;;;;;;;-3.80;90.10;;;;;;6043505;23;19949;-78
2022/01/08 07:26:15;;;;;;;;;;;-3.80;90.00;;;;;;6043053;23;19921;-80
2022/01/08 07:28:43;;;;;;;;;;;-3.80;90.20;;;;;;6042954;23;19945;-77
2022/01/08 07:31:10;;;;;;;;;;;-3.80;90.60;;;;;;6043740;23;19925;-78
2022/01/08 07:33:36;;;;;;;;;;;-3.70;90.30;;;;;;6042166;23;19922;-78
2022/01/08 07:36:03;;;;;;;;;;;-3.70;90.30;;;;;;6043870;23;20343;-78
2022/01/08 07:38:31;;;;;;;;;;;-3.70;90.70;;;;;;6042722;23;19921;-78
2022/01/08 07:40:57;;;;;;;;;;;-3.60;90.50;;;;;;6043464;23;19921;-76
2022/01/08 07:43:24;;;;;;;;;;;-3.60;90.90;;;;;;6043088;23;20343;-77
2022/01/08 07:45:51;;;;;;;;;;;-3.60;90.70;;;;;;6042518;23;19941;-76
2022/01/08 07:48:18;;;;;;;;;;;-3.60;90.40;;;;;;6068104;23;19922;-78
2022/01/08 07:50:45;;;;;;;;;;;-3.50;90.80;;;;;;6067400;23;19952;-80
2022/01/08 07:53:11;;;;;;;;;;;-3.30;90.90;;;;;;6067738;23;19921;-78
2022/01/08 07:55:38;;;;;;;;;;;-3.10;90.60;;;;;;6042562;23;19925;-78
2022/01/08 07:58:05;;;;;;;;;;;-2.80;90.20;;;;;;6042796;23;19925;-77
2022/01/08 08:00:32;;;;;;;;;;;-2.40;88.70;;;;;;6043537;23;19922;-77
2022/01/08 08:02:59;;;;;;;;;;;-2.20;86.10;;;;;;6043368;23;20240;-79
2022/01/08 08:05:26;;;;;;;;;;;-2.10;85.80;;;;;;6043154;23;19921;-79
2022/01/08 08:07:55;;;;;;;;;;;-1.90;85.50;;;;;;6043183;23;19922;-80
2022/01/08 08:10:24;;;;;;;;;;;-1.90;85.40;;;;;;6043110;23;19949;-80
2022/01/08 08:12:53;;;;;;;;;;;-1.80;85.00;;;;;;6067735;23;20296;-77
2022/01/08 08:15:20;;;;;;;;;;;-1.60;84.80;;;;;;6043089;23;19932;-76
2022/01/08 08:17:47;;;;;;;;;;;-1.60;85.30;;;;;;6042287;23;19921;-80
2022/01/08 08:20:14;;;;;;;;;;;-1.60;84.40;;;;;;6043061;23;19952;-79
2022/01/08 08:22:41;;;;;;;;;;;-1.70;84.30;;;;;;6041917;23;19926;-78
2022/01/08 08:25:10;;;;;;;;;;;-1.70;84.50;;;;;;6040167;23;20391;-79
2022/01/08 08:27:39;;;;;;;;;;;-1.80;84.80;;;;;;6034861;23;20000;-79
2022/01/08 08:30:07;;;;;;;;;;;-1.80;85.00;;;;;;6037907;23;20344;-79
2022/01/08 08:32:34;;;;;;;;;;;-1.60;85.40;;;;;;6039737;23;19925;-79
2022/01/08 08:35:02;;;;;;;;;;;-1.50;85.70;;;;;;6041301;23;19962;-78
2022/01/08 08:37:29;;;;;;;;;;;-1.30;86.20;;;;;;6038935;23;19929;-79
2022/01/08 08:39:56;;;;;;;;;;;-1.00;85.60;;;;;;6039286;23;19932;-78
2022/01/08 08:42:23;;;;;;;;;;;-0.70;85.10;;;;;;6037179;23;19929;-78
2022/01/08 08:44:50;;;;;;;;;;;-0.50;84.50;;;;;;6038551;23;19925;-78
2022/01/08 08:47:17;;;;;;;;;;;-0.20;83.90;;;;;;6042038;23;19921;-77
2022/01/08 08:49:44;;;;;;;;;;;0.00;83.80;;;;;;6041449;23;20403;-78
2022/01/08 08:52:11;;;;;;;;;;;0.10;83.40;;;;;;6042003;23;19925;-76
2022/01/08 08:54:41;;;;;;;;;;;0.20;83.20;;;;;;6041445;23;20020;-77
2022/01/08 08:57:09;;;;;;;;;;;0.30;83.10;;;;;;6067517;23;19922;-78
2022/01/08 08:59:36;;;;;;;;;;;0.40;83.60;;;;;;6041537;23;20339;-77
2022/01/08 09:02:03;;;;;;;;;;;0.50;83.50;;;;;;6042127;23;19926;-78
2022/01/08 09:04:30;;;;;;;;;;;0.60;83.20;;;;;;6041667;23;19925;-76
2022/01/08 09:06:57;;;;;;;;;;;0.80;83.30;;;;;;6041125;23;19921;-77
2022/01/08 09:09:24;;;;;;;;;;;0.90;83.00;;;;;;6041825;23;19922;-77
2022/01/08 09:11:52;;;;;;;;;;;1.10;82.40;;;;;;6040462;23;19941;-76
2022/01/08 09:14:19;;;;;;;;;;;1.20;82.20;;;;;;6041131;23;19981;-78
2022/01/08 09:16:48;;;;;;;;;;;1.20;81.20;;;;;;6065165;23;19929;-77
2022/01/08 09:19:15;;;;;;;;;;;1.00;82.50;;;;;;6039851;23;19925;-77
2022/01/08 09:21:42;;;;;;;;;;;1.00;83.40;;;;;;6040646;23;19925;-77
2022/01/08 09:24:10;;;;;;;;;;;1.00;82.80;;;;;;6065887;23;20296;-75
2022/01/08 09:26:37;;;;;;;;;;;0.90;82.70;;;;;;6040484;23;19922;-77
2022/01/08 09:29:03;;;;;;;;;;;0.90;83.20;;;;;;6065687;23;19926;-77
2022/01/08 09:31:31;;;;;;;;;;;0.90;83.70;;;;;;6041042;23;19927;-76
2022/01/08 09:33:58;;;;;;;;;;;0.90;83.70;;;;;;6065338;23;20255;-76
2022/01/08 09:36:25;;;;;;;;;;;0.80;84.80;;;;;;6041410;23;19933;-77
2022/01/08 09:38:52;;;;;;;;;;;0.90;85.40;;;;;;6040667;23;19925;-77
2022/01/08 09:41:19;;;;;;;;;;;1.10;85.50;;;;;;6041592;23;20324;-77
2022/01/08 09:43:46;;;;;;;;;;;1.30;85.20;;;;;;6040407;23;20365;-75
2022/01/08 09:46:15;;;;;;;;;;;1.50;85.10;;;;;;6041006;23;19930;-78
2022/01/08 09:48:43;;;;;;;;;;;1.60;84.60;;;;;;6039713;23;20422;-76
2022/01/08 09:51:10;;;;;;;;;;;1.70;83.80;;;;;;6040300;23;20304;-77
2022/01/08 09:53:36;;;;;;;;;;;1.80;85.10;;;;;;6040011;23;19977;-78
2022/01/08 09:56:04;;;;;;;;;;;1.90;83.00;;;;;;6040790;23;19921;-78
2022/01/08 09:58:31;;;;;;;;;;;2.00;82.70;;;;;;6042120;23;19929;-77
2022/01/08 10:00:59;;;;;;;;;;;2.10;82.20;;;;;;6040940;23;19921;-77
2022/01/08 10:03:31;;;;;;;;;;;2.20;81.60;;;;;;6041016;23;19932;-78
2022/01/08 10:05:58;;;;;;;;;;;2.10;80.60;;;;;;6040393;23;19945;-78
2022/01/08 10:08:42;;;;;;;;;;;2.20;80.50;;;;;;6065403;23;19921;-76
2022/01/08 10:11:10;;;;;;;;;;;2.40;80.20;;;;;;6040307;23;19929;-77
2022/01/08 10:13:42;;;;;;;;;;;2.50;79.80;;;;;;6066217;23;19922;-77
2022/01/08 10:18:58;;;;;;;;;;;2.80;78.90;;;;;;6067602;23;19926;-78
2022/01/08 10:21:30;;;;;;;;;;;2.90;77.40;;;;;;6066392;23;19976;-78
2022/01/08 10:23:59;;;;;;;;;;;2.80;77.10;;;;;;6067429;23;19933;-78
2022/01/08 10:26:32;;;;;;;;;;;2.40;78.60;;;;;;6042670;23;19925;-76
2022/01/08 10:29:00;;;;;;;;;;;2.30;79.40;;;;;;6042243;23;19977;-77
2022/01/08 10:31:30;;;;;;;;;;;2.10;79.70;;;;;;6043355;23;19929;-77
2022/01/08 10:33:57;;;;;;;;;;;2.00;80.30;;;;;;6042308;23;19921;-76
2022/01/08 10:36:29;;;;;;;;;;;1.90;80.40;;;;;;6041674;23;19949;-78
2022/01/08 10:38:57;;;;;;;;;;;1.90;80.10;;;;;;6041362;23;19925;-77
2022/01/08 10:41:24;;;;;;;;;;;1.80;81.20;;;;;;6067748;23;19929;-78
2022/01/08 10:44:04;;;;;;;;;;;2.00;82.20;;;;;;6066932;23;20316;-77
2022/01/08 10:46:32;;;;;;;;;;;2.30;82.20;;;;;;6040439;23;19926;-76
2022/01/08 10:48:59;;;;;;;;;;;2.60;80.90;;;;;;6066317;23;19937;-77
2022/01/08 10:51:27;;;;;;;;;;;2.90;80.90;;;;;;6041834;23;19929;-77
2022/01/08 10:54:08;;;;;;;;;;;3.10;78.70;;;;;;6042559;23;20343;-77
2022/01/08 10:56:40;;;;;;;;;;;3.30;77.90;;;;;;6044811;23;19928;-77
2022/01/08 10:59:09;;;;;;;;;;;3.60;77.90;;;;;;6042730;23;19933;-76
2022/01/08 11:01:39;;;;;;;;;;;3.80;76.10;;;;;;6068764;23;19922;-78
2022/01/08 11:04:07;;;;;;;;;;;4.00;75.60;;;;;;6067954;23;19929;-77
2022/01/08 11:06:48;;;;;;;;;;;4.20;75.00;;;;;;6067618;23;19922;-78
2022/01/08 11:09:15;;;;;;;;;;;4.40;73.70;;;;;;6043225;23;19925;-77
2022/01/08 11:11:46;;;;;;;;;;;4.50;72.10;;;;;;6067821;23;20363;-78
2022/01/08 11:14:22;;;;;;;;;;;4.50;70.60;;;;;;6041777;23;19922;-75
2022/01/08 11:16:50;;;;;;;;;;;4.50;69.90;;;;;;6042741;23;20370;-77
2022/01/08 11:19:18;;;;;;;;;;;4.70;69.70;;;;;;6043148;23;19922;-78
2022/01/08 11:21:47;;;;;;;;;;;4.60;69.80;;;;;;6043114;23;20403;-78
2022/01/08 11:24:16;;;;;;;;;;;4.80;69.90;;;;;;6041834;23;20296;-77
2022/01/08 11:26:43;;;;;;;;;;;5.00;68.60;;;;;;6042571;23;19926;-76
2022/01/08 11:29:17;;;;;;;;;;;5.10;67.30;;;;;;6067640;23;19921;-78
2022/01/08 11:31:44;;;;;;;;;;;5.20;66.60;;;;;;6043067;23;20252;-75
2022/01/08 11:34:12;;;;;;;;;;;5.40;66.10;;;;;;6041189;23;19926;-78
2022/01/08 11:36:39;;;;;;;;;;;5.40;65.40;;;;;;6043267;23;19922;-78
2022/01/08 11:39:09;;;;;;;;;;;5.30;66.20;;;;;;6042726;23;19925;-78
2022/01/08 11:41:36;;;;;;;;;;;5.40;66.10;;;;;;6043343;23;19953;-78
2022/01/08 11:44:04;;;;;;;;;;;5.70;66.60;;;;;;6042403;23;19973;-78
2022/01/08 11:46:34;;;;;;;;;;;6.00;66.10;;;;;;6043213;23;19932;-78
2022/01/08 11:49:01;;;;;;;;;;;6.30;64.70;;;;;;6041817;23;19926;-78
2022/01/08 11:51:29;;;;;;;;;;;6.40;60.60;;;;;;6042921;23;19926;-78
2022/01/08 11:53:58;;;;;;;;;;;6.60;61.80;;;;;;6041794;23;19922;-78
2022/01/08 11:56:27;;;;;;;;;;;6.80;61.70;;;;;;6042295;23;20351;-75
2022/01/08 11:59:11;;;;;;;;;;;7.00;61.60;;;;;;6067861;23;19926;-79
2022/01/08 12:01:58;;;;;;;;;;;7.20;59.50;;;;;;6041996;23;19921;-78
2022/01/08 12:04:29;;;;;;;;;;;7.20;58.70;;;;;;6022585;23;19922;-78
2022/01/08 12:06:56;;;;;;;;;;;7.40;58.90;;;;;;6042905;23;20343;-78
2022/01/08 12:09:29;;;;;;;;;;;7.50;58.10;;;;;;6042576;23;19928;-78
2022/01/08 12:12:00;;;;;;;;;;;7.60;57.20;;;;;;6067561;23;20347;-76
2022/01/08 12:14:33;;;;;;;;;;;7.60;56.50;;;;;;6066980;23;19925;-76
2022/01/08 12:17:14;;;;;;;;;;;7.50;56.40;;;;;;6042492;23;19925;-76
2022/01/08 12:19:45;;;;;;;;;;;7.30;56.80;;;;;;6066936;23;19925;-78
2022/01/08 12:22:15;;;;;;;;;;;7.30;56.70;;;;;;6042598;23;19925;-79
2022/01/08 12:24:43;;;;;;;;;;;7.20;57.40;;;;;;6042175;23;19926;-76
2022/01/08 12:27:30;;;;;;;;;;;7.30;57.50;;;;;;6019018;23;20288;-78
2022/01/08 12:29:57;;;;;;;;;;;7.30;56.90;;;;;;6041537;23;19926;-78
2022/01/08 12:32:30;;;;;;;;;;;7.30;57.20;;;;;;6042637;23;20020;-78
2022/01/08 12:35:03;;;;;;;;;;;7.20;57.70;;;;;;6042006;23;20343;-79
2022/01/08 12:37:40;;;;;;;;;;;7.30;58.40;;;;;;6043447;23;20351;-79
2022/01/08 12:40:08;;;;;;;;;;;7.30;57.70;;;;;;6041590;23;20673;-80
2022/01/08 12:42:36;;;;;;;;;;;7.30;58.70;;;;;;6042818;23;20338;-76
2022/01/08 12:45:10;;;;;;;;;;;7.20;59.90;;;;;;6041699;23;19929;-79
2022/01/08 12:47:56;;;;;;;;;;;7.30;59.90;;;;;;6042457;23;20267;-78
2022/01/08 12:50:25;;;;;;;;;;;7.30;59.90;;;;;;6040971;23;19922;-76
2022/01/08 12:53:03;;;;;;;;;;;7.40;59.80;;;;;;6067772;23;20340;-80
2022/01/08 12:55:31;;;;;;;;;;;7.20;59.20;;;;;;6042031;23;19925;-80
2022/01/08 12:57:58;;;;;;;;;;;7.20;59.60;;;;;;6043333;23;19937;-79
2022/01/08 13:00:26;;;;;;;;;;;7.10;59.40;;;;;;6042268;23;20299;-80
2022/01/08 13:02:53;;;;;;;;;;;7.10;60.00;;;;;;6068480;23;20232;-79
2022/01/08 13:05:20;;;;;;;;;;;7.10;60.60;;;;;;6017517;23;20296;-80
2022/01/08 13:07:51;;;;;;;;;;;7.00;59.30;;;;;;6042630;23;20304;-80
2022/01/08 13:10:18;;;;;;;;;;;7.00;60.80;;;;;;6040817;23;19928;-80
2022/01/08 13:13:04;;;;;;;;;;;7.00;59.80;;;;;;6040538;23;20241;-79
2022/01/08 13:15:33;;;;;;;;;;;7.00;59.60;;;;;;6041877;23;20347;-80
2022/01/08 13:18:16;;;;;;;;;;;7.00;59.60;;;;;;6042925;23;19953;-79
2022/01/08 13:20:43;;;;;;;;;;;7.10;59.30;;;;;;6042151;23;19922;-79
2022/01/08 13:23:12;;;;;;;;;;;7.20;59.30;;;;;;6041753;23;19940;-79
2022/01/08 13:25:39;;;;;;;;;;;7.20;58.50;;;;;;6041889;23;20071;-79
2022/01/08 13:28:06;;;;;;;;;;;7.10;59.20;;;;;;6042792;23;20305;-80
2022/01/08 13:30:33;;;;;;;;;;;7.30;59.30;;;;;;6068480;23;20248;-80
2022/01/08 13:33:01;;;;;;;;;;;7.30;58.80;;;;;;6066989;23;20009;-76
2022/01/08 13:35:27;;;;;;;;;;;7.30;59.00;;;;;;6042143;23;19921;-79
2022/01/08 13:37:54;;;;;;;;;;;7.40;59.10;;;;;;6042485;23;19929;-79
2022/01/08 13:40:25;;;;;;;;;;;7.40;58.60;;;;;;6041994;23;20366;-79
2022/01/08 13:42:53;;;;;;;;;;;7.50;59.00;;;;;;6068524;23;20395;-79
2022/01/08 13:45:22;;;;;;;;;;;7.50;60.20;;;;;;6040694;23;20350;-79
2022/01/08 13:47:53;;;;;;;;;;;7.40;58.90;;;;;;6041875;23;19929;-76
2022/01/08 13:50:23;;;;;;;;;;;7.30;59.30;;;;;;6040243;23;20259;-80
2022/01/08 13:52:56;;;;;;;;;;;7.30;59.50;;;;;;6043154;23;19929;-79
2022/01/08 13:55:24;;;;;;;;;;;7.40;60.10;;;;;;6066730;23;19926;-79
2022/01/08 13:58:11;;;;;;;;;;;7.50;59.60;;;;;;6042900;23;19952;-80
2022/01/08 14:00:40;;;;;;;;;;;7.60;59.50;;;;;;6066671;23;19922;-79
2022/01/08 14:03:16;;;;;;;;;;;7.60;59.10;;;;;;6066989;23;19921;-79
2022/01/08 14:05:43;;;;;;;;;;;7.60;59.00;;;;;;6040490;23;19926;-79
2022/01/08 14:08:10;;;;;;;;;;;7.70;59.30;;;;;;6066507;23;20355;-79
2022/01/08 14:10:44;;;;;;;;;;;7.70;59.10;;;;;;6041202;23;19929;-77
2022/01/08 14:13:16;;;;;;;;;;;7.60;59.00;;;;;;6042687;23;19921;-77
2022/01/08 14:15:45;;;;;;;;;;;7.60;59.30;;;;;;6041921;23;19925;-80
2022/01/08 14:18:12;;;;;;;;;;;7.70;59.30;;;;;;6041936;23;19946;-80
2022/01/08 14:20:39;;;;;;;;;;;7.70;59.60;;;;;;6041153;23;19921;-80
2022/01/08 14:23:14;;;;;;;;;;;7.60;59.60;;;;;;6041825;23;19928;-76
2022/01/08 14:25:43;;;;;;;;;;;7.60;59.50;;;;;;6041394;23;19933;-79
2022/01/08 14:28:17;;;;;;;;;;;7.60;59.30;;;;;;6044296;23;19926;-79
2022/01/08 14:30:45;;;;;;;;;;;7.50;59.30;;;;;;6064890;23;20284;-79
2022/01/08 14:33:12;;;;;;;;;;;7.60;59.40;;;;;;6067690;23;19922;-80
2022/01/08 14:35:39;;;;;;;;;;;7.50;59.60;;;;;;6067099;23;20343;-76
2022/01/08 14:38:06;;;;;;;;;;;7.50;59.10;;;;;;6043781;23;19921;-79
2022/01/08 14:40:33;;;;;;;;;;;7.40;59.50;;;;;;6065585;23;20347;-78
2022/01/08 14:43:04;;;;;;;;;;;7.40;59.90;;;;;;6042801;23;19977;-79
2022/01/08 14:45:32;;;;;;;;;;;7.40;59.60;;;;;;6068736;23;19932;-79
2022/01/08 14:48:00;;;;;;;;;;;7.40;59.80;;;;;;6041811;23;19925;-79
2022/01/08 14:50:28;;;;;;;;;;;7.40;60.00;;;;;;6035939;23;20411;-79